首页
METAR-TAF:

METAR-TAF

机场 :

Waterbury-Oxford Airport

牛津, 康乃狄克州, 美国

纬度: 41-29N, 经度: 073-08W, 海拔: 222米

当前天气观测

该预报发布于39分钟前的15:51 UTC
风速5节,风向多变
温度 -1°C
湿度 80%
气压 1033 hPa
能見度: 16.1公里
天空无云

METAR: KOXC 081551Z VRB05KT 10SM CLR M01/M04 A3049 RMK AO2 SLP348 T10111044

时间: 11:30 (16:30 UTC)


TAF: 丢失

超过4000个机场的气象观测和天气预报(METAR&TAF报告)。

可查询的气象台以黄色和红色小点在地图上表示。

将鼠标移到小点上方,可查看气象台名称。

然后点击查看天气观测和预报。

如需切换地图:点击带黑十字的绿色按钮放大地图;点击带横线的绿色按钮缩小地图;或者点击绿色箭头查看邻近地区的地图。


METAR-TAF: